CAL95 RKPK-RKSI
Flight info
| Callsign | CAL95 |
|---|---|
| Flight time | N/A |
| Altitude | 33000 |
| Route | RKPK/36R BEVSI3 MASTA TGU A582 BITUX Z53 BASEM GUKDO GUKD2E RKSI/34L |
| Aircraft | A388/J-SDE1E2E3FGHIJ1J3J4J7M3P2RWYZ/LB1D1 |
Departure
| Time | 2026-04-28 02:17 |
|---|---|
| Airport | Gimhae International Airport (RKPK) |
Arrival
| Time | N/A |
|---|---|
| Airport | Incheon International Airport (RKSI) |
| Time | Latitude | Longitude | Altitude | Speed | Heading |
|---|---|---|---|---|---|
| 2026-04-28 01:59 | 35.18352 | 128.94338 | 19 ft | 0 kts | 172° |
| 2026-04-28 02:04 | 35.18350 | 128.94338 | 19 ft | 2 kts | 172° |
| 2026-04-28 02:04 | 35.18318 | 128.94344 | 22 ft | 7 kts | 172° |
| 2026-04-28 02:05 | 35.18251 | 128.94355 | 20 ft | 12 kts | 172° |
| 2026-04-28 02:05 | 35.18158 | 128.94370 | 19 ft | 15 kts | 172° |
| 2026-04-28 02:05 | 35.18043 | 128.94389 | 20 ft | 16 kts | 172° |
| 2026-04-28 02:05 | 35.18033 | 128.94390 | 19 ft | 0 kts | 172° |
| 2026-04-28 02:06 | 35.18030 | 128.94391 | 19 ft | 2 kts | 172° |
| 2026-04-28 02:11 | 35.18021 | 128.94392 | 21 ft | 0 kts | 172° |
| 2026-04-28 02:11 | 35.17978 | 128.94398 | 20 ft | 0 kts | 180° |
| 2026-04-28 02:14 | 35.17966 | 128.94396 | 20 ft | 2 kts | 202° |
| 2026-04-28 02:14 | 35.17948 | 128.94378 | 19 ft | 5 kts | 230° |
| 2026-04-28 02:14 | 35.17939 | 128.94341 | 21 ft | 6 kts | 259° |
| 2026-04-28 02:14 | 35.17932 | 128.94296 | 19 ft | 8 kts | 261° |
| 2026-04-28 02:15 | 35.17928 | 128.94270 | 22 ft | 6 kts | 236° |
| 2026-04-28 02:15 | 35.17918 | 128.94261 | 20 ft | 7 kts | 202° |
| 2026-04-28 02:15 | 35.17873 | 128.94295 | 22 ft | 0 kts | 67° |
| 2026-04-28 02:16 | 35.17954 | 128.94234 | 19 ft | 0 kts | 41° |
| 2026-04-28 02:16 | 35.19416 | 128.93227 | 20 ft | 386 kts | 23° |
| 2026-04-28 02:16 | 35.19407 | 128.93855 | 19 ft | 546 kts | 204° |
| 2026-04-28 02:17 | 35.19298 | 128.93506 | 27 ft | 0 kts | 198° |
| 2026-04-28 02:17 | 35.19022 | 128.93406 | 128 ft | 228 kts | 198° |
| 2026-04-28 02:17 | 35.17701 | 128.92898 | 384 ft | 189 kts | 198° |
| 2026-04-28 02:17 | 35.16385 | 128.92435 | 699 ft | 202 kts | 199° |
| 2026-04-28 02:18 | 35.15028 | 128.91897 | 994 ft | 210 kts | 204° |
| 2026-04-28 02:18 | 35.13611 | 128.91001 | 1091 ft | 251 kts | 218° |
| 2026-04-28 02:18 | 35.12401 | 128.89256 | 910 ft | 295 kts | 246° |
| 2026-04-28 02:18 | 35.11665 | 128.86873 | 1886 ft | 293 kts | 258° |
| 2026-04-28 02:19 | 35.11656 | 128.84500 | 3393 ft | 277 kts | 283° |
| 2026-04-28 02:19 | 35.12481 | 128.82489 | 4970 ft | 258 kts | 309° |
| 2026-04-28 02:19 | 35.13909 | 128.81240 | 6326 ft | 257 kts | 333° |
| 2026-04-28 02:19 | 35.15728 | 128.80872 | 7120 ft | 276 kts | 356° |
| 2026-04-28 02:20 | 35.17627 | 128.80859 | 7867 ft | 272 kts | 341° |
| 2026-04-28 02:20 | 35.19358 | 128.80018 | 8694 ft | 266 kts | 324° |
| 2026-04-28 02:20 | 35.20944 | 128.78842 | 9564 ft | 266 kts | 321° |
| 2026-04-28 02:20 | 35.22521 | 128.77641 | 10325 ft | 272 kts | 321° |
| 2026-04-28 02:21 | 35.24207 | 128.76428 | 10564 ft | 296 kts | 323° |
| 2026-04-28 02:21 | 35.26093 | 128.75181 | 10760 ft | 319 kts | 326° |
| 2026-04-28 02:21 | 35.28147 | 128.73919 | 10963 ft | 341 kts | 327° |
| 2026-04-28 02:21 | 35.30344 | 128.72609 | 11151 ft | 361 kts | 328° |
| 2026-04-28 02:22 | 35.32669 | 128.71268 | 11476 ft | 375 kts | 329° |
| 2026-04-28 02:22 | 35.35058 | 128.69940 | 12098 ft | 378 kts | 328° |
| 2026-04-28 02:22 | 35.37407 | 128.68487 | 12726 ft | 378 kts | 324° |
| 2026-04-28 02:22 | 35.39601 | 128.66738 | 13349 ft | 374 kts | 315° |
| 2026-04-28 02:23 | 35.41496 | 128.64559 | 13929 ft | 372 kts | 308° |
| 2026-04-28 02:23 | 35.43216 | 128.62245 | 14381 ft | 373 kts | 306° |
| 2026-04-28 02:23 | 35.44926 | 128.59823 | 14995 ft | 373 kts | 305° |
| 2026-04-28 02:23 | 35.46708 | 128.57466 | 15518 ft | 380 kts | 310° |
| 2026-04-28 02:24 | 35.48696 | 128.55275 | 16026 ft | 385 kts | 311° |
| 2026-04-28 02:24 | 35.50683 | 128.53128 | 16570 ft | 386 kts | 312° |
| 2026-04-28 02:24 | 35.52743 | 128.50921 | 17077 ft | 390 kts | 312° |
| 2026-04-28 02:24 | 35.54794 | 128.48735 | 17583 ft | 392 kts | 312° |
| 2026-04-28 02:25 | 35.56840 | 128.46563 | 18067 ft | 395 kts | 312° |
| 2026-04-28 02:25 | 35.58927 | 128.44352 | 18548 ft | 396 kts | 311° |
| 2026-04-28 02:25 | 35.61033 | 128.42124 | 18928 ft | 400 kts | 311° |
| 2026-04-28 02:25 | 35.63147 | 128.39885 | 19324 ft | 402 kts | 311° |
| 2026-04-28 02:26 | 35.65272 | 128.37631 | 19699 ft | 405 kts | 311° |
| 2026-04-28 02:26 | 35.67405 | 128.35366 | 20089 ft | 407 kts | 311° |
| 2026-04-28 02:26 | 35.69565 | 128.33067 | 20506 ft | 410 kts | 311° |
| 2026-04-28 02:26 | 35.71705 | 128.30787 | 20882 ft | 413 kts | 311° |
| 2026-04-28 02:27 | 35.73882 | 128.28466 | 21285 ft | 416 kts | 311° |
| 2026-04-28 02:27 | 35.76071 | 128.26130 | 21674 ft | 419 kts | 311° |
| 2026-04-28 02:27 | 35.78286 | 128.23765 | 22101 ft | 421 kts | 311° |
| 2026-04-28 02:27 | 35.80475 | 128.21425 | 22528 ft | 424 kts | 311° |
| 2026-04-28 02:28 | 35.82739 | 128.19004 | 22965 ft | 427 kts | 311° |
| 2026-04-28 02:28 | 35.84997 | 128.16585 | 23278 ft | 432 kts | 310° |
| 2026-04-28 02:28 | 35.87275 | 128.14149 | 23744 ft | 434 kts | 310° |
| 2026-04-28 02:28 | 35.89555 | 128.11711 | 24236 ft | 434 kts | 310° |
| 2026-04-28 02:29 | 35.91835 | 128.09282 | 24967 ft | 430 kts | 310° |
| 2026-04-28 02:29 | 35.94094 | 128.06880 | 25582 ft | 429 kts | 310° |